Time;durP1;ratioP1;P1;durP2;ratioP2;P2;SDS_P1;SDS_P2;PMS_P1;PMS_P2;Temp;Humidity;BMP_temperature;BMP_pressure;BME280_temperature;BME280_humidity;BME280_pressure;Samples;Min_cycle;Max_cycle;Signal;HPM_P1;HPM_P2
2024/02/15 00:02:22;;;;;;;11.13;3.83;;;;;;;16.71;79.47;101673.13;5052419;28;20487;-50
2024/02/15 00:04:47;;;;;;;10.30;4.05;;;;;;;16.63;79.42;101675.75;5050505;28;20036;-48
2024/02/15 00:07:13;;;;;;;12.95;3.95;;;;;;;16.49;80.05;101677.44;5050815;28;20064;-48
2024/02/15 00:09:38;;;;;;;13.50;4.30;;;;;;;16.58;80.09;101679.22;5051834;28;20033;-50
2024/02/15 00:12:04;;;;;;;16.25;4.32;;;;;;;16.59;80.19;101671.34;5051725;28;20149;-48
2024/02/15 00:14:31;;;;;;;13.38;4.20;;;;;;;16.62;80.03;101679.25;5051327;28;20087;-51
2024/02/15 00:16:57;;;;;;;14.32;4.22;;;;;;;16.58;80.15;101669.59;5051420;28;20484;-49
2024/02/15 00:19:22;;;;;;;14.23;4.22;;;;;;;16.77;79.56;101669.63;5051783;28;20089;-48
2024/02/15 00:21:48;;;;;;;12.63;4.32;;;;;;;16.88;78.92;101666.13;5050213;28;20033;-50
2024/02/15 00:24:16;;;;;;;14.98;4.90;;;;;;;16.70;79.76;101659.97;5052085;28;20095;-49
2024/02/15 00:26:42;;;;;;;13.15;5.63;;;;;;;16.39;80.38;101657.25;5051918;28;20513;-51
2024/02/15 00:29:08;;;;;;;14.55;5.32;;;;;;;16.77;79.45;101667.00;5050238;28;20648;-51
2024/02/15 00:31:34;;;;;;;12.00;5.75;;;;;;;16.81;79.46;101660.84;5051917;28;20029;-49
2024/02/15 00:33:59;;;;;;;14.95;6.13;;;;;;;16.80;79.12;101659.09;5051566;28;20437;-50
2024/02/15 00:36:25;;;;;;;12.93;7.03;;;;;;;16.78;79.73;101660.84;5050508;28;20017;-51
2024/02/15 00:38:51;;;;;;;14.93;7.13;;;;;;;16.69;79.96;101659.09;5049546;28;20064;-49
2024/02/15 00:41:17;;;;;;;16.65;6.95;;;;;;;16.65;79.88;101662.56;5051540;28;20024;-53
2024/02/15 00:43:43;;;;;;;15.32;7.25;;;;;;;16.88;78.91;101663.50;5050308;28;20116;-47
2024/02/15 00:46:08;;;;;;;14.50;6.55;;;;;;;17.00;78.62;101652.97;5050910;28;20147;-47
2024/02/15 00:48:34;;;;;;;14.13;6.45;;;;;;;16.90;78.53;101655.56;5050447;28;20709;-52
2024/02/15 00:50:59;;;;;;;17.08;6.85;;;;;;;16.82;78.76;101649.44;5049646;28;20052;-53
2024/02/15 00:53:24;;;;;;;17.65;6.90;;;;;;;16.64;78.69;101650.31;5050266;28;20029;-54
2024/02/15 00:55:51;;;;;;;18.33;6.55;;;;;;;16.68;78.70;101654.69;5051037;28;20068;-50
2024/02/15 00:58:16;;;;;;;14.27;5.95;;;;;;;16.59;79.65;101659.91;5051272;28;20488;-49
2024/02/15 01:00:42;;;;;;;13.50;6.32;;;;;;;16.78;78.64;101661.72;5050967;28;20041;-51
2024/02/15 01:03:07;;;;;;;13.05;6.13;;;;;;;16.90;78.82;101658.19;5049803;28;20036;-52
2024/02/15 01:05:34;;;;;;;15.73;6.57;;;;;;;16.65;79.66;101653.84;5051252;28;20700;-49
2024/02/15 01:07:59;;;;;;;15.93;7.53;;;;;;;16.86;78.95;101654.69;5050897;28;20059;-48
2024/02/15 01:10:26;;;;;;;17.00;7.10;;;;;;;16.94;78.89;101647.69;5051079;28;20511;-47
2024/02/15 01:12:51;;;;;;;14.27;8.02;;;;;;;16.82;78.83;101645.06;5050780;28;20041;-50
2024/02/15 01:15:18;;;;;;;16.48;8.32;;;;;;;16.78;79.00;101638.00;5051173;28;20032;-49
2024/02/15 01:17:44;;;;;;;17.15;7.75;;;;;;;16.88;78.51;101636.28;5049901;28;20541;-49
2024/02/15 01:20:10;;;;;;;15.48;8.50;;;;;;;16.90;78.54;101639.75;5065169;28;20056;-49
2024/02/15 01:22:36;;;;;;;17.02;8.13;;;;;;;16.83;78.99;101644.16;5049708;28;20108;-49
2024/02/15 01:25:01;;;;;;;14.77;8.35;;;;;;;16.54;79.88;101630.94;5050420;28;20148;-50
2024/02/15 01:27:30;;;;;;;13.85;7.63;;;;;;;16.90;78.54;101631.88;5050819;28;20036;-49
2024/02/15 01:29:57;;;;;;;15.38;8.38;;;;;;;16.86;78.19;101631.00;5049974;28;20060;-51
2024/02/15 01:32:23;;;;;;;17.25;8.00;;;;;;;16.67;78.89;101629.25;5050645;28;20119;-49
2024/02/15 01:34:51;;;;;;;16.85;8.05;;;;;;;16.82;78.34;101631.00;5050446;28;20159;-51
2024/02/15 01:37:16;;;;;;;15.90;8.18;;;;;;;16.86;78.73;101632.75;5049444;28;20032;-52
2024/02/15 01:39:42;;;;;;;16.83;8.20;;;;;;;16.71;79.46;101627.50;5049832;28;20056;-50
2024/02/15 01:42:07;;;;;;;19.50;8.45;;;;;;;16.79;78.87;101631.00;5048209;28;20109;-51
2024/02/15 01:44:32;;;;;;;18.95;8.32;;;;;;;16.71;79.04;101624.88;5050848;28;20033;-48
2024/02/15 01:47:00;;;;;;;17.17;8.43;;;;;;;16.66;78.71;101627.47;5050204;28;20033;-51
2024/02/15 01:49:27;;;;;;;16.00;7.78;;;;;;;16.67;78.16;101615.19;5049608;28;20489;-52
2024/02/15 01:51:56;;;;;;;21.40;7.60;;;;;;;16.75;77.77;101616.09;5049765;28;20033;-50
2024/02/15 01:54:22;;;;;;;15.52;7.68;;;;;;;16.70;77.89;101615.22;5050298;28;20039;-49
2024/02/15 01:56:47;;;;;;;16.38;8.15;;;;;;;16.52;78.73;101603.78;5064993;28;20116;-50
2024/02/15 01:59:16;;;;;;;16.60;8.80;;;;;;;16.39;79.51;101603.75;5048638;28;20131;-52
2024/02/15 02:01:42;;;;;;;18.25;8.73;;;;;;;16.59;78.57;101608.16;5050387;28;20056;-48
2024/02/15 02:04:08;;;;;;;16.45;8.20;;;;;;;16.46;78.75;101603.78;5049373;28;20413;-48
2024/02/15 02:06:34;;;;;;;15.98;8.30;;;;;;;16.45;78.85;101606.38;5051186;28;20062;-48
2024/02/15 02:08:59;;;;;;;15.73;8.32;;;;;;;16.30;79.24;101599.34;5050125;28;20265;-51
2024/02/15 02:11:25;;;;;;;16.80;7.80;;;;;;;16.35;79.83;101608.13;5049373;28;20025;-48
2024/02/15 02:13:51;;;;;;;17.10;7.78;;;;;;;16.49;79.31;101600.25;5048709;28;20371;-50
2024/02/15 02:16:27;;;;;;;15.13;7.57;;;;;;;16.59;78.87;101604.63;5048712;28;20032;-49
2024/02/15 02:18:52;;;;;;;17.33;7.43;;;;;;;16.52;79.25;101603.78;5048349;28;20087;-51
2024/02/15 02:21:18;;;;;;;17.30;7.30;;;;;;;16.56;79.21;101604.63;5065731;28;20487;-48
2024/02/15 02:23:49;;;;;;;18.20;7.45;;;;;;;16.54;79.64;101596.72;5049855;28;20557;-49
2024/02/15 02:26:15;;;;;;;12.48;7.03;;;;;;;16.59;79.04;101599.34;5032570;28;20029;-47
2024/02/15 02:28:41;;;;;;;16.48;6.97;;;;;;;16.62;79.61;101596.78;5048452;28;20438;-51
2024/02/15 02:31:06;;;;;;;16.13;6.72;;;;;;;16.65;79.44;101596.75;5049011;28;20051;-51
2024/02/15 02:33:31;;;;;;;13.13;6.38;;;;;;;16.74;79.05;101585.34;5048272;28;20037;-50
2024/02/15 02:35:57;;;;;;;16.20;6.38;;;;;;;16.76;78.92;101586.25;5047879;28;20106;-50
2024/02/15 02:38:26;;;;;;;13.75;6.20;;;;;;;16.62;79.40;101587.13;5049658;28;20171;-47
2024/02/15 02:40:52;;;;;;;13.20;6.00;;;;;;;16.66;79.07;101587.09;5048731;28;20090;-49
2024/02/15 02:43:17;;;;;;;15.60;6.05;;;;;;;16.79;78.92;101592.38;5049608;28;20041;-48
2024/02/15 02:45:45;;;;;;;11.68;5.88;;;;;;;16.58;79.22;101587.09;5049281;28;20055;-48
2024/02/15 02:48:11;;;;;;;15.23;5.82;;;;;;;16.58;79.54;101584.47;5048774;28;20070;-48
2024/02/15 02:50:37;;;;;;;13.07;5.75;;;;;;;16.60;79.68;101588.88;5048223;28;20045;-53
2024/02/15 02:53:02;;;;;;;15.30;5.90;;;;;;;16.63;79.13;101586.25;5048850;28;20056;-50
2024/02/15 02:55:27;;;;;;;17.30;5.70;;;;;;;16.69;79.53;101585.38;5050192;28;20037;-50
2024/02/15 02:57:54;;;;;;;16.13;5.25;;;;;;;16.89;78.91;101582.72;5049386;28;20037;-49
2024/02/15 03:00:21;;;;;;;14.35;5.38;;;;;;;16.91;78.46;101579.19;5049629;28;20100;-50
2024/02/15 03:02:47;;;;;;;16.88;5.70;;;;;;;16.88;78.30;101587.13;5049225;28;20128;-50
2024/02/15 03:05:15;;;;;;;12.15;5.45;;;;;;;16.89;78.49;101585.38;5048234;28;20452;-49
2024/02/15 03:07:41;;;;;;;15.32;5.68;;;;;;;16.77;78.80;101580.09;5049626;28;20048;-48
2024/02/15 03:10:08;;;;;;;15.60;5.90;;;;;;;16.84;78.60;101584.47;5051677;28;20025;-51
2024/02/15 03:12:40;;;;;;;10.85;4.93;;;;;;;16.72;79.41;101589.75;5051086;28;20029;-50
2024/02/15 03:15:11;;;;;;;12.57;5.25;;;;;;;16.72;79.35;101582.72;5048611;28;20039;-50
2024/02/15 03:17:38;;;;;;;11.40;5.60;;;;;;;16.74;79.02;101583.59;5049964;28;20569;-49
2024/02/15 03:23:02;;;;;;;17.83;5.68;;;;;;;16.85;79.11;101581.84;5030357;28;20057;-48
2024/02/15 03:25:28;;;;;;;15.70;6.30;;;;;;;16.71;79.81;101583.59;5049062;28;20029;-52
2024/02/15 03:27:56;;;;;;;18.83;5.88;;;;;;;16.82;79.19;101583.59;5048460;28;20527;-51
2024/02/15 03:30:26;;;;;;;19.45;6.28;;;;;;;16.79;79.30;101586.22;5049071;28;20493;-50
2024/02/15 03:32:54;;;;;;;15.15;6.15;;;;;;;16.60;80.28;101570.44;5047380;28;20033;-52
2024/02/15 03:35:22;;;;;;;14.38;6.30;;;;;;;16.69;80.02;101587.13;5047794;28;20033;-50
2024/02/15 03:37:50;;;;;;;17.25;6.40;;;;;;;16.70;80.21;101587.13;5047404;28;20025;-48
2024/02/15 03:40:16;;;;;;;17.52;6.90;;;;;;;16.54;81.27;101587.94;5048395;28;20063;-47
2024/02/15 03:42:42;;;;;;;15.25;7.03;;;;;;;16.59;81.19;101584.47;5048904;28;20097;-49
2024/02/15 03:45:08;;;;;;;15.43;7.53;;;;;;;16.73;80.50;101573.06;5047419;28;20029;-47
2024/02/15 03:47:35;;;;;;;13.70;7.35;;;;;;;16.72;80.44;101560.78;5046509;28;20590;-50
2024/02/15 03:50:01;;;;;;;18.15;7.78;;;;;;;16.72;80.83;101563.41;5046743;28;20044;-47
2024/02/15 03:52:26;;;;;;;16.27;7.63;;;;;;;16.63;81.22;101561.69;5049070;28;20025;-49
2024/02/15 03:54:52;;;;;;;15.13;7.80;;;;;;;16.71;81.17;101565.16;5048511;28;20060;-47
2024/02/15 03:57:20;;;;;;;17.55;7.88;;;;;;;16.69;81.44;101559.03;5048270;28;20025;-49
2024/02/15 03:59:50;;;;;;;13.18;7.78;;;;;;;16.70;81.41;101566.06;5046763;28;20158;-47
2024/02/15 04:02:15;;;;;;;16.50;8.60;;;;;;;16.72;81.26;101548.50;5048956;28;20125;-50
2024/02/15 04:04:42;;;;;;;14.73;9.35;;;;;;;16.69;81.51;101555.53;5051192;28;20292;-48
2024/02/15 04:07:08;;;;;;;16.85;8.90;;;;;;;16.57;81.81;101551.13;5052238;28;20120;-48
2024/02/15 04:09:35;;;;;;;13.55;9.18;;;;;;;16.62;82.02;101557.28;5052298;28;20120;-47
2024/02/15 04:12:01;;;;;;;15.43;9.20;;;;;;;16.74;81.33;101553.75;5056464;28;20434;-52
2024/02/15 04:14:26;;;;;;;17.13;8.82;;;;;;;16.55;81.89;101548.47;5058400;28;20059;-51
2024/02/15 04:16:51;;;;;;;19.02;9.00;;;;;;;16.54;82.59;101541.44;5050696;28;20041;-48
2024/02/15 04:19:19;;;;;;;15.23;8.43;;;;;;;16.60;82.17;101546.75;5050375;28;20495;-51
2024/02/15 04:21:46;;;;;;;15.23;8.45;;;;;;;16.57;82.39;101549.38;5051946;28;20495;-48
2024/02/15 04:24:11;;;;;;;17.25;8.40;;;;;;;16.43;82.90;101547.59;5051892;28;20162;-50
2024/02/15 04:26:37;;;;;;;14.70;8.55;;;;;;;16.43;82.93;101537.06;5051982;28;20123;-52
2024/02/15 04:29:03;;;;;;;14.38;7.82;;;;;;;16.55;82.47;101535.31;5051323;28;20045;-49
2024/02/15 04:31:28;;;;;;;13.30;8.40;;;;;;;16.56;82.80;101546.72;5052250;28;20080;-53
2024/02/15 04:33:54;;;;;;;14.75;8.30;;;;;;;16.48;82.71;101551.09;5051955;28;20040;-50
2024/02/15 04:36:23;;;;;;;13.18;7.90;;;;;;;16.64;82.55;101558.16;5052574;28;20025;-50
2024/02/15 04:38:50;;;;;;;14.60;8.52;;;;;;;16.25;84.08;101559.00;5051796;28;20039;-48
2024/02/15 04:41:19;;;;;;;11.70;8.10;;;;;;;16.50;83.06;101562.53;5052376;28;20087;-47
2024/02/15 04:43:49;;;;;;;15.43;8.25;;;;;;;16.58;83.03;101559.03;5052352;28;20532;-47
2024/02/15 04:46:14;;;;;;;14.23;8.60;;;;;;;16.55;82.90;101566.03;5051902;28;20037;-52
2024/02/15 04:48:42;;;;;;;13.95;8.70;;;;;;;16.62;82.65;101565.19;5052216;28;20087;-48
2024/02/15 04:51:08;;;;;;;15.40;8.90;;;;;;;16.56;82.66;101559.88;5050948;28;20029;-47
2024/02/15 04:53:33;;;;;;;18.67;10.13;;;;;;;16.41;83.78;101554.59;5052191;28;20086;-47
2024/02/15 04:56:01;;;;;;;16.85;10.05;;;;;;;16.50;83.10;101538.81;5051667;28;20037;-51
2024/02/15 04:58:28;;;;;;;17.20;10.25;;;;;;;16.60;82.79;101515.16;5051935;28;20097;-50
2024/02/15 05:00:58;;;;;;;18.88;10.00;;;;;;;16.53;82.50;101508.09;5051694;28;20032;-51
2024/02/15 05:03:24;;;;;;;20.02;10.63;;;;;;;16.49;83.30;101514.25;5051538;28;20083;-49
2024/02/15 05:05:49;;;;;;;21.10;11.15;;;;;;;16.50;82.84;101494.97;5050947;28;20446;-51
2024/02/15 05:08:15;;;;;;;18.35;10.95;;;;;;;16.59;82.42;101494.97;5051166;28;20033;-50
2024/02/15 05:10:40;;;;;;;20.63;11.02;;;;;;;16.60;82.00;101490.59;5051236;28;20033;-50
2024/02/15 05:13:06;;;;;;;17.15;10.88;;;;;;;16.42;82.59;101495.84;5051012;28;20063;-51
2024/02/15 05:15:32;;;;;;;26.40;11.90;;;;;;;16.44;82.82;101501.97;5049975;28;20037;-47
2024/02/15 05:17:58;;;;;;;23.23;12.35;;;;;;;16.46;83.00;101508.13;5050679;28;20033;-53
2024/02/15 05:20:25;;;;;;;22.50;11.38;;;;;;;16.26;84.17;101504.63;5050825;28;20043;-49
2024/02/15 05:22:50;;;;;;;20.25;10.80;;;;;;;16.53;83.17;101509.84;5050445;28;20407;-51
2024/02/15 05:25:15;;;;;;;20.65;10.88;;;;;;;16.56;82.87;101500.22;5051034;28;20037;-52
2024/02/15 05:27:42;;;;;;;23.40;11.02;;;;;;;16.53;82.84;101496.69;5051030;28;20067;-50
2024/02/15 05:30:08;;;;;;;22.58;10.45;;;;;;;16.49;83.08;101498.47;5050011;28;20044;-48
2024/02/15 05:32:41;;;;;;;21.65;11.07;;;;;;;16.36;83.89;101499.34;5050949;28;20069;-51
2024/02/15 05:35:08;;;;;;;21.13;10.63;;;;;;;16.17;84.25;101495.84;5050510;28;20074;-51
2024/02/15 05:37:34;;;;;;;19.98;10.75;;;;;;;16.41;83.74;101497.59;5050776;28;20037;-50
2024/02/15 05:40:00;;;;;;;22.23;10.68;;;;;;;16.48;83.70;101501.09;5049914;28;20171;-49
2024/02/15 05:42:26;;;;;;;24.30;10.55;;;;;;;16.56;83.15;101502.84;5050707;28;20112;-51
2024/02/15 05:44:52;;;;;;;24.10;10.43;;;;;;;16.54;82.81;101498.47;5050170;28;20545;-50
2024/02/15 05:47:17;;;;;;;20.17;10.43;;;;;;;16.34;84.08;101493.22;5050412;28;20037;-52
2024/02/15 05:49:43;;;;;;;18.85;10.30;;;;;;;16.35;84.04;101500.22;5048826;28;20033;-50
2024/02/15 05:52:10;;;;;;;21.27;10.05;;;;;;;16.43;83.53;101490.59;5048973;28;20032;-48
2024/02/15 05:54:35;;;;;;;20.08;9.70;;;;;;;16.60;82.81;101493.22;5050637;28;20067;-49
2024/02/15 05:57:01;;;;;;;17.65;9.43;;;;;;;16.67;82.64;101483.56;5050170;28;20251;-49
2024/02/15 05:59:26;;;;;;;20.42;9.63;;;;;;;16.57;82.51;101477.41;5048778;28;20053;-49
2024/02/15 06:01:52;;;;;;;22.00;9.02;;;;;;;16.45;83.64;101486.19;5050062;28;20033;-51
2024/02/15 06:04:19;;;;;;;17.45;9.32;;;;;;;16.39;83.75;101488.84;5050854;28;20588;-50
2024/02/15 06:06:48;;;;;;;19.20;9.40;;;;;;;16.27;84.36;101490.59;5050914;28;20048;-50
2024/02/15 06:09:13;;;;;;;17.20;9.40;;;;;;;16.30;84.22;101490.59;5050607;28;20055;-49
2024/02/15 06:11:39;;;;;;;17.45;9.27;;;;;;;16.51;83.42;101477.41;5050875;28;20061;-50
2024/02/15 06:14:06;;;;;;;19.58;9.05;;;;;;;16.51;83.27;101480.06;5049618;28;20044;-49
2024/02/15 06:16:31;;;;;;;17.48;9.02;;;;;;;16.42;83.60;101480.03;5050285;28;20066;-51
2024/02/15 06:18:57;;;;;;;18.13;9.20;;;;;;;16.53;83.29;101481.78;5049074;28;20033;-54
2024/02/15 06:21:23;;;;;;;17.58;8.27;;;;;;;16.62;82.62;101471.28;5050076;28;20066;-49
2024/02/15 06:23:49;;;;;;;14.75;7.80;;;;;;;16.57;83.08;101477.41;5049664;28;20272;-49
2024/02/15 06:26:15;;;;;;;14.77;7.60;;;;;;;16.46;83.25;101479.19;5049519;28;20029;-48
2024/02/15 06:39:42;;;;;;;10.18;6.57;;;;;;;16.33;83.95;101477.44;5049377;28;20032;-47
2024/02/15 06:42:15;;;;;;;12.93;7.38;;;;;;;16.42;84.08;101496.72;5049101;28;20032;-51
2024/02/15 06:44:41;;;;;;;14.45;7.25;;;;;;;16.27;84.35;101503.75;5049965;28;20510;-50
2024/02/15 06:47:07;;;;;;;11.18;7.18;;;;;;;16.53;83.49;101500.22;5049012;28;20091;-50
2024/02/15 06:49:33;;;;;;;10.63;6.90;;;;;;;16.67;82.77;101478.28;5049227;28;20471;-48
2024/02/15 06:52:01;;;;;;;11.93;7.05;;;;;;;16.69;82.69;101472.16;5049268;28;20041;-48
2024/02/15 06:54:27;;;;;;;11.63;7.75;;;;;;;16.70;82.82;101462.50;5049586;28;20029;-48
2024/02/15 06:56:54;;;;;;;12.23;7.78;;;;;;;16.55;83.56;101455.47;5047244;28;20029;-50
2024/02/15 06:59:22;;;;;;;10.07;7.53;;;;;;;16.46;83.94;101477.44;5048858;28;20032;-49
2024/02/15 07:01:47;;;;;;;11.57;7.80;;;;;;;16.56;83.43;101487.06;5048846;28;20037;-48
2024/02/15 07:04:12;;;;;;;12.52;8.13;;;;;;;16.30;84.28;101495.84;5049314;28;20430;-48
2024/02/15 07:06:38;;;;;;;15.63;9.40;;;;;;;16.25;85.23;101506.38;5048289;28;20500;-49
2024/02/15 07:09:05;;;;;;;17.02;9.10;;;;;;;16.40;84.34;101502.88;5048662;28;20068;-50
2024/02/15 07:11:35;;;;;;;14.18;8.90;;;;;;;16.27;85.28;101509.91;5049533;28;20033;-48
2024/02/15 07:14:01;;;;;;;15.80;9.57;;;;;;;16.51;83.96;101504.63;5047542;28;20037;-49
2024/02/15 07:16:26;;;;;;;13.50;9.27;;;;;;;16.52;84.16;101509.00;5047331;28;20037;-49
2024/02/15 07:18:52;;;;;;;15.00;9.38;;;;;;;16.48;84.14;101509.88;5048321;28;20041;-51
2024/02/15 07:21:21;;;;;;;12.05;8.40;;;;;;;16.45;84.21;101503.75;5049279;28;20029;-52
2024/02/15 07:23:46;;;;;;;13.90;9.32;;;;;;;16.60;83.53;101499.38;5048657;28;20088;-48
2024/02/15 07:26:12;;;;;;;15.48;8.88;;;;;;;16.63;83.55;101502.00;5049161;28;20429;-51
2024/02/15 07:28:37;;;;;;;15.00;9.82;;;;;;;16.59;84.09;101500.22;5049044;28;20048;-49
2024/02/15 07:31:03;;;;;;;16.42;9.45;;;;;;;16.69;83.64;101490.59;5048398;28;20064;-49
2024/02/15 07:33:28;;;;;;;18.65;10.63;;;;;;;16.65;83.75;101488.81;5049163;28;20057;-50
2024/02/15 07:35:54;;;;;;;21.95;10.95;;;;;;;16.55;83.97;101487.94;5048897;28;20041;-51
2024/02/15 07:38:22;;;;;;;19.85;11.48;;;;;;;16.55;83.90;101481.78;5048938;28;20059;-53
2024/02/15 07:40:48;;;;;;;20.90;11.68;;;;;;;16.43;84.61;101482.69;5051190;28;20044;-49
2024/02/15 07:43:14;;;;;;;20.63;11.63;;;;;;;16.60;84.32;101480.06;5053994;28;20052;-52
2024/02/15 07:45:39;;;;;;;21.48;11.70;;;;;;;16.65;83.98;101480.06;5053620;28;20110;-49
2024/02/15 07:48:05;;;;;;;19.70;10.57;;;;;;;16.78;83.39;101482.66;5052371;28;20052;-47
2024/02/15 07:50:31;;;;;;;16.30;9.75;;;;;;;16.72;84.03;101474.75;5052704;28;20040;-49
2024/02/15 07:52:56;;;;;;;18.60;10.10;;;;;;;16.80;83.40;101470.38;5052363;28;20113;-50
2024/02/15 07:55:21;;;;;;;17.00;9.27;;;;;;;16.77;83.59;101475.63;5052674;28;20175;-52
2024/02/15 07:57:48;;;;;;;16.40;9.30;;;;;;;16.74;83.75;101480.03;5052360;28;20112;-49
2024/02/15 08:00:16;;;;;;;18.58;9.02;;;;;;;16.78;83.70;101473.88;5052306;28;20040;-48
2024/02/15 08:02:42;;;;;;;18.88;9.13;;;;;;;16.78;83.62;101469.47;5050985;28;20043;-51
2024/02/15 08:05:10;;;;;;;15.82;9.02;;;;;;;16.54;83.91;101457.22;5052206;28;20491;-51
2024/02/15 08:07:41;;;;;;;14.02;8.45;;;;;;;16.65;83.91;101466.91;5052681;28;20040;-51
2024/02/15 08:10:12;;;;;;;13.52;8.10;;;;;;;16.53;84.36;101473.88;5051367;28;20064;-51
2024/02/15 08:12:39;;;;;;;14.48;8.27;;;;;;;16.69;83.72;101476.53;5051152;28;20094;-49
2024/02/15 08:15:04;;;;;;;12.38;7.60;;;;;;;16.71;83.67;101467.75;5051806;28;20138;-54
2024/02/15 08:17:30;;;;;;;13.88;8.32;;;;;;;16.83;83.36;101466.88;5052414;28;20116;-50
2024/02/15 08:19:55;;;;;;;15.50;8.25;;;;;;;16.65;83.99;101473.03;5051428;28;20403;-49
2024/02/15 08:22:23;;;;;;;13.73;7.93;;;;;;;16.65;84.31;101480.06;5052369;28;20094;-50
2024/02/15 08:24:52;;;;;;;14.80;7.97;;;;;;;16.79;83.31;101470.38;5051779;28;20120;-51
2024/02/15 08:27:17;;;;;;;14.23;7.60;;;;;;;16.77;83.50;101477.41;5051999;28;20607;-49
2024/02/15 08:29:42;;;;;;;19.20;7.95;;;;;;;16.86;83.36;101472.97;5051570;28;20041;-50
2024/02/15 08:32:08;;;;;;;14.80;8.48;;;;;;;16.74;83.96;101478.28;5050423;28;20064;-53
2024/02/15 08:34:33;;;;;;;12.93;8.27;;;;;;;16.74;83.76;101475.66;5052433;28;20064;-51
2024/02/15 08:36:58;;;;;;;14.43;8.52;;;;;;;16.47;84.55;101476.53;5051446;28;20033;-49
2024/02/15 08:39:24;;;;;;;14.27;8.48;;;;;;;16.72;84.53;101466.88;5051468;28;20428;-54
2024/02/15 08:41:51;;;;;;;15.00;8.40;;;;;;;16.88;83.69;101468.59;5051564;28;20044;-50
2024/02/15 08:44:19;;;;;;;16.05;8.40;;;;;;;16.89;83.69;101461.56;5052181;28;20384;-51
2024/02/15 08:46:44;;;;;;;18.40;9.07;;;;;;;16.72;83.68;101461.59;5051934;28;20029;-49
2024/02/15 08:49:13;;;;;;;15.68;9.10;;;;;;;16.91;83.51;101467.69;5050808;28;20029;-49
2024/02/15 08:51:38;;;;;;;14.55;8.52;;;;;;;16.93;83.93;101469.47;5051995;28;20039;-51
2024/02/15 08:54:04;;;;;;;18.20;9.38;;;;;;;17.08;83.05;101459.75;5051250;28;20115;-49
2024/02/15 08:56:29;;;;;;;21.38;9.10;;;;;;;17.00;82.84;101465.94;5059897;22;20108;-82
2024/02/15 08:58:54;;;;;;;17.52;9.60;;;;;;;16.87;83.28;101458.94;5056909;28;20060;-83
2024/02/15 09:01:23;;;;;;;17.52;9.55;;;;;;;16.90;83.59;101460.66;5058988;28;20033;-82
2024/02/15 09:03:49;;;;;;;17.15;9.65;;;;;;;16.84;83.47;101448.41;5064308;28;20072;-83
2024/02/15 09:06:22;;;;;;;15.18;8.90;;;;;;;17.00;83.42;101443.97;5045839;28;20773;-86
2024/02/15 09:08:48;;;;;;;18.20;9.80;;;;;;;16.99;83.10;101443.09;5039365;28;20046;-81
2024/02/15 09:11:13;;;;;;;18.35;9.38;;;;;;;16.59;84.34;101452.84;5038548;28;20053;-82
2024/02/15 09:13:39;;;;;;;20.30;9.68;;;;;;;16.86;83.92;101446.66;5038830;28;20041;-82
2024/02/15 09:16:07;;;;;;;18.75;9.27;;;;;;;17.17;83.10;101444.78;5036575;28;20238;-83
2024/02/15 09:18:45;;;;;;;17.80;8.90;;;;;;;17.11;83.19;101452.69;5037351;28;20034;-82
2024/02/15 09:21:14;;;;;;;18.75;8.77;;;;;;;17.38;82.17;101451.72;5055769;28;20040;-83
2024/02/15 09:23:39;;;;;;;16.67;8.38;;;;;;;17.45;82.19;101454.28;5059603;28;20040;-82
2024/02/15 09:26:04;;;;;;;15.95;8.45;;;;;;;17.23;82.03;101451.78;5060993;28;20120;-82
2024/02/15 09:28:30;;;;;;;18.73;8.52;;;;;;;17.45;81.91;101454.28;5060574;28;20091;-84
2024/02/15 09:30:59;;;;;;;18.77;9.25;;;;;;;16.92;82.72;101441.34;5059651;28;20037;-82
2024/02/15 09:33:36;;;;;;;16.40;8.80;;;;;;;17.40;81.71;101452.56;5056338;28;20029;-81
2024/02/15 09:36:05;;;;;;;19.80;8.30;;;;;;;17.63;81.24;101453.31;5055946;28;20129;-81
2024/02/15 09:38:30;;;;;;;16.98;8.15;;;;;;;17.50;80.95;101453.41;5056000;28;20043;-81
2024/02/15 09:40:56;;;;;;;18.38;8.80;;;;;;;17.28;81.72;101447.34;5054189;28;20045;-82
2024/02/15 09:43:25;;;;;;;16.77;9.20;;;;;;;17.08;81.95;101449.22;5056603;28;20029;-82
2024/02/15 09:45:54;;;;;;;20.98;9.20;;;;;;;17.56;81.71;101445.44;5055188;28;20052;-81
2024/02/15 09:48:23;;;;;;;17.52;8.75;;;;;;;17.80;81.32;101440.94;5056376;28;20037;-81
2024/02/15 09:50:52;;;;;;;17.05;8.70;;;;;;;18.11;80.61;101449.44;5060059;28;20040;-82
2024/02/15 09:53:21;;;;;;;16.88;8.93;;;;;;;17.82;80.24;101454.06;5067186;28;20021;-86
2024/02/15 09:55:46;;;;;;;16.60;8.98;;;;;;;17.76;80.67;101457.63;5071169;28;20033;-88
2024/02/15 09:58:12;;;;;;;19.70;8.27;;;;;;;17.70;80.18;101449.75;5064354;28;20052;-82
2024/02/15 10:00:38;;;;;;;15.40;8.45;;;;;;;17.87;79.80;101454.91;5063423;28;20040;-81
2024/02/15 10:03:07;;;;;;;16.02;8.07;;;;;;;17.81;79.23;101457.59;5062384;28;20063;-80
2024/02/15 10:05:33;;;;;;;15.82;7.93;;;;;;;17.65;79.69;101458.59;5059309;28;20035;-80
2024/02/15 10:08:02;;;;;;;15.10;8.30;;;;;;;17.91;79.73;101461.06;5057068;28;20093;-82
2024/02/15 10:10:28;;;;;;;12.40;7.47;;;;;;;18.19;79.08;101460.81;5055464;28;20432;-82
2024/02/15 10:12:54;;;;;;;14.93;7.85;;;;;;;18.23;78.60;101461.69;5054810;28;20051;-81
2024/02/15 10:15:31;;;;;;;16.95;7.82;;;;;;;17.97;79.20;101461.91;5056210;28;20037;-82
2024/02/15 10:17:58;;;;;;;13.68;7.25;;;;;;;18.02;79.06;101473.28;5056805;28;20123;-81
2024/02/15 10:20:25;;;;;;;13.40;7.60;;;;;;;17.93;78.83;101468.06;5056381;28;20119;-81
2024/02/15 10:22:54;;;;;;;16.08;7.50;;;;;;;18.15;78.51;101468.78;5055313;28;20033;-82
2024/02/15 10:25:20;;;;;;;14.07;8.10;;;;;;;18.27;78.40;101470.44;5056420;28;20033;-82
2024/02/15 10:27:46;;;;;;;12.70;7.55;;;;;;;18.38;78.79;101464.19;5055428;28;20036;-81
2024/02/15 10:30:21;;;;;;;13.52;7.97;;;;;;;18.11;78.69;101459.16;5057851;28;20100;-82
2024/02/15 10:32:48;;;;;;;15.43;8.45;;;;;;;18.50;78.47;101453.50;5060867;28;20055;-82
2024/02/15 10:35:20;;;;;;;14.48;8.07;;;;;;;18.70;78.17;101455.97;5068359;28;20514;-81
2024/02/15 10:37:48;;;;;;;16.77;7.45;;;;;;;18.75;77.90;101454.16;5069304;28;20119;-81
2024/02/15 10:40:23;;;;;;;15.13;7.75;;;;;;;18.29;78.11;101453.72;5062306;28;20366;-81
2024/02/15 10:42:52;;;;;;;13.80;7.43;;;;;;;18.61;77.65;101449.00;5055942;28;20060;-81
2024/02/15 10:45:18;;;;;;;15.05;7.45;;;;;;;18.74;76.73;101444.47;5054645;28;20628;-81
2024/02/15 10:47:49;;;;;;;13.77;7.30;;;;;;;19.09;76.74;101445.84;5056438;28;20072;-82
2024/02/15 10:50:16;;;;;;;12.25;6.65;;;;;;;19.03;75.63;101446.75;5057789;28;20122;-81
2024/02/15 10:52:58;;;;;;;11.40;6.57;;;;;;;18.99;76.47;101437.13;5056329;28;20238;-82
2024/02/15 10:55:46;;;;;;;10.68;6.28;;;;;;;19.31;75.95;101442.88;5056952;28;20029;-82
2024/02/15 10:58:16;;;;;;;10.60;6.03;;;;;;;19.39;75.49;101441.00;5056170;28;20043;-81
2024/02/15 11:00:45;;;;;;;11.18;5.78;;;;;;;19.58;74.89;101435.50;5057501;28;20044;-82
2024/02/15 11:03:17;;;;;;;11.68;5.80;;;;;;;19.66;74.59;101431.84;5058738;28;20025;-83
2024/02/15 11:05:44;;;;;;;14.25;5.80;;;;;;;19.37;74.75;101434.00;5062656;28;20037;-82
2024/02/15 11:08:11;;;;;;;15.07;5.68;;;;;;;19.51;74.89;101423.28;5066990;28;20036;-79
2024/02/15 11:10:37;;;;;;;10.27;5.53;;;;;;;19.58;74.86;101425.78;5073374;28;20052;-82
2024/02/15 11:13:06;;;;;;;10.48;5.45;;;;;;;19.64;74.65;101423.03;5073180;28;20047;-82
2024/02/15 11:15:46;;;;;;;11.68;5.40;;;;;;;19.65;74.63;101432.72;5072145;28;20037;-82
2024/02/15 11:18:12;;;;;;;10.80;5.40;;;;;;;19.77;74.42;101421.97;5061360;28;20397;-82
2024/02/15 11:20:41;;;;;;;9.05;5.30;;;;;;;19.90;74.19;101427.06;5059898;28;20051;-82
2024/02/15 11:23:06;;;;;;;10.07;5.45;;;;;;;19.78;74.23;101422.84;5058947;28;20033;-82
2024/02/15 11:25:39;;;;;;;10.38;4.80;;;;;;;19.73;74.61;101416.75;5062658;28;20071;-81
2024/02/15 11:28:22;;;;;;;12.18;5.45;;;;;;;19.81;73.93;101407.81;5074766;28;20075;-82
2024/02/15 11:30:57;;;;;;;11.02;5.63;;;;;;;19.81;73.33;101407.81;5077210;28;20039;-81